sensor_id;sensor_type;location;lat;lon;timestamp;P1;durP1;ratioP1;P2;durP2;ratioP2
10174;SDS011;18221;38.704;0.152;2024-03-02T00:01:20;3.57;;;2.20;;
10174;SDS011;18221;38.704;0.152;2024-03-02T00:03:48;7.10;;;2.40;;
10174;SDS011;18221;38.704;0.152;2024-03-02T00:06:18;4.27;;;2.40;;
10174;SDS011;18221;38.704;0.152;2024-03-02T00:08:47;2.70;;;2.00;;
10174;SDS011;18221;38.704;0.152;2024-03-02T00:11:15;3.70;;;2.10;;
10174;SDS011;18221;38.704;0.152;2024-03-02T00:13:46;4.90;;;2.60;;
10174;SDS011;18221;38.704;0.152;2024-03-02T00:16:14;6.50;;;2.23;;
10174;SDS011;18221;38.704;0.152;2024-03-02T00:18:43;5.17;;;2.27;;
10174;SDS011;18221;38.704;0.152;2024-03-02T00:21:11;3.73;;;1.93;;
10174;SDS011;18221;38.704;0.152;2024-03-02T00:23:41;2.33;;;1.60;;
10174;SDS011;18221;38.704;0.152;2024-03-02T00:26:09;3.57;;;1.97;;
10174;SDS011;18221;38.704;0.152;2024-03-02T00:28:40;6.37;;;2.50;;
10174;SDS011;18221;38.704;0.152;2024-03-02T00:31:11;5.27;;;2.07;;
10174;SDS011;18221;38.704;0.152;2024-03-02T00:33:41;2.53;;;2.00;;
10174;SDS011;18221;38.704;0.152;2024-03-02T00:36:11;3.30;;;2.27;;
10174;SDS011;18221;38.704;0.152;2024-03-02T00:38:46;3.23;;;2.20;;
10174;SDS011;18221;38.704;0.152;2024-03-02T00:41:20;3.70;;;2.27;;
10174;SDS011;18221;38.704;0.152;2024-03-02T00:46:40;4.00;;;2.20;;
10174;SDS011;18221;38.704;0.152;2024-03-02T00:49:11;3.57;;;2.40;;
10174;SDS011;18221;38.704;0.152;2024-03-02T01:02:11;4.67;;;1.97;;
10174;SDS011;18221;38.704;0.152;2024-03-02T01:04:39;2.83;;;2.17;;
10174;SDS011;18221;38.704;0.152;2024-03-02T01:07:07;3.13;;;2.10;;
10174;SDS011;18221;38.704;0.152;2024-03-02T01:09:35;4.27;;;2.30;;
10174;SDS011;18221;38.704;0.152;2024-03-02T01:12:03;3.50;;;1.87;;
10174;SDS011;18221;38.704;0.152;2024-03-02T01:14:31;3.70;;;1.90;;
10174;SDS011;18221;38.704;0.152;2024-03-02T01:16:59;4.60;;;2.10;;
10174;SDS011;18221;38.704;0.152;2024-03-02T01:19:30;4.33;;;1.87;;
10174;SDS011;18221;38.704;0.152;2024-03-02T01:21:58;2.13;;;1.63;;
10174;SDS011;18221;38.704;0.152;2024-03-02T01:24:25;3.93;;;1.53;;
10174;SDS011;18221;38.704;0.152;2024-03-02T01:26:53;2.60;;;1.47;;
10174;SDS011;18221;38.704;0.152;2024-03-02T01:29:21;3.40;;;1.70;;
10174;SDS011;18221;38.704;0.152;2024-03-02T01:31:49;4.67;;;1.97;;
10174;SDS011;18221;38.704;0.152;2024-03-02T01:34:18;2.67;;;1.60;;
10174;SDS011;18221;38.704;0.152;2024-03-02T01:36:48;2.83;;;1.80;;
10174;SDS011;18221;38.704;0.152;2024-03-02T01:39:15;2.87;;;2.03;;
10174;SDS011;18221;38.704;0.152;2024-03-02T01:41:43;2.93;;;1.90;;
10174;SDS011;18221;38.704;0.152;2024-03-02T01:44:11;5.57;;;1.60;;
10174;SDS011;18221;38.704;0.152;2024-03-02T01:46:39;3.73;;;1.80;;
10174;SDS011;18221;38.704;0.152;2024-03-02T01:49:07;3.73;;;1.50;;
10174;SDS011;18221;38.704;0.152;2024-03-02T01:51:35;2.87;;;1.90;;
10174;SDS011;18221;38.704;0.152;2024-03-02T01:54:04;2.93;;;1.63;;
10174;SDS011;18221;38.704;0.152;2024-03-02T01:56:32;1.77;;;1.60;;
10174;SDS011;18221;38.704;0.152;2024-03-02T01:59:00;3.00;;;1.70;;
10174;SDS011;18221;38.704;0.152;2024-03-02T02:01:28;2.20;;;1.63;;
10174;SDS011;18221;38.704;0.152;2024-03-02T02:03:56;2.83;;;1.83;;
10174;SDS011;18221;38.704;0.152;2024-03-02T02:06:24;4.13;;;1.90;;
10174;SDS011;18221;38.704;0.152;2024-03-02T02:08:52;1.90;;;1.80;;
10174;SDS011;18221;38.704;0.152;2024-03-02T02:11:21;3.43;;;1.80;;
10174;SDS011;18221;38.704;0.152;2024-03-02T02:13:49;2.83;;;1.70;;
10174;SDS011;18221;38.704;0.152;2024-03-02T02:16:17;2.93;;;1.73;;
10174;SDS011;18221;38.704;0.152;2024-03-02T02:18:45;3.37;;;1.67;;
10174;SDS011;18221;38.704;0.152;2024-03-02T02:21:13;4.27;;;1.80;;
10174;SDS011;18221;38.704;0.152;2024-03-02T02:23:42;3.27;;;1.83;;
10174;SDS011;18221;38.704;0.152;2024-03-02T02:26:13;2.30;;;1.57;;
10174;SDS011;18221;38.704;0.152;2024-03-02T02:28:41;4.70;;;2.27;;
10174;SDS011;18221;38.704;0.152;2024-03-02T02:31:12;1.67;;;1.57;;
10174;SDS011;18221;38.704;0.152;2024-03-02T02:33:40;4.63;;;2.07;;
10174;SDS011;18221;38.704;0.152;2024-03-02T02:36:08;3.57;;;1.90;;
10174;SDS011;18221;38.704;0.152;2024-03-02T02:38:37;3.77;;;1.70;;
10174;SDS011;18221;38.704;0.152;2024-03-02T02:41:12;5.13;;;2.10;;
10174;SDS011;18221;38.704;0.152;2024-03-02T02:43:39;4.10;;;2.00;;
10174;SDS011;18221;38.704;0.152;2024-03-02T02:46:07;3.17;;;1.93;;
10174;SDS011;18221;38.704;0.152;2024-03-02T02:48:35;3.37;;;1.80;;
10174;SDS011;18221;38.704;0.152;2024-03-02T02:51:03;4.20;;;1.70;;
10174;SDS011;18221;38.704;0.152;2024-03-02T02:53:31;4.23;;;1.70;;
10174;SDS011;18221;38.704;0.152;2024-03-02T02:56:02;3.77;;;1.70;;
10174;SDS011;18221;38.704;0.152;2024-03-02T02:58:30;3.93;;;1.90;;
10174;SDS011;18221;38.704;0.152;2024-03-02T03:00:58;4.17;;;1.90;;
10174;SDS011;18221;38.704;0.152;2024-03-02T03:03:26;4.43;;;2.10;;
10174;SDS011;18221;38.704;0.152;2024-03-02T03:05:54;4.83;;;2.00;;
10174;SDS011;18221;38.704;0.152;2024-03-02T03:08:21;2.97;;;1.90;;
10174;SDS011;18221;38.704;0.152;2024-03-02T03:10:49;3.07;;;2.20;;
10174;SDS011;18221;38.704;0.152;2024-03-02T03:13:19;2.50;;;1.63;;
10174;SDS011;18221;38.704;0.152;2024-03-02T03:15:47;2.73;;;1.90;;
10174;SDS011;18221;38.704;0.152;2024-03-02T03:18:15;4.17;;;2.20;;
10174;SDS011;18221;38.704;0.152;2024-03-02T03:20:42;4.20;;;2.10;;
10174;SDS011;18221;38.704;0.152;2024-03-02T03:23:10;3.80;;;1.83;;
10174;SDS011;18221;38.704;0.152;2024-03-02T03:25:41;2.80;;;1.63;;
10174;SDS011;18221;38.704;0.152;2024-03-02T03:28:09;3.63;;;2.03;;
10174;SDS011;18221;38.704;0.152;2024-03-02T03:30:39;5.27;;;2.00;;
10174;SDS011;18221;38.704;0.152;2024-03-02T03:33:07;4.07;;;2.50;;
10174;SDS011;18221;38.704;0.152;2024-03-02T03:35:35;3.00;;;1.93;;
10174;SDS011;18221;38.704;0.152;2024-03-02T03:38:04;2.63;;;1.63;;
10174;SDS011;18221;38.704;0.152;2024-03-02T03:40:32;3.50;;;1.83;;
10174;SDS011;18221;38.704;0.152;2024-03-02T03:42:59;2.73;;;2.00;;
10174;SDS011;18221;38.704;0.152;2024-03-02T03:45:27;2.50;;;1.60;;
10174;SDS011;18221;38.704;0.152;2024-03-02T03:47:57;3.53;;;1.93;;
10174;SDS011;18221;38.704;0.152;2024-03-02T03:50:24;3.57;;;1.93;;
10174;SDS011;18221;38.704;0.152;2024-03-02T03:52:52;2.30;;;1.70;;
10174;SDS011;18221;38.704;0.152;2024-03-02T03:55:20;4.07;;;1.97;;
10174;SDS011;18221;38.704;0.152;2024-03-02T03:57:48;4.43;;;2.23;;
10174;SDS011;18221;38.704;0.152;2024-03-02T04:00:16;4.90;;;1.80;;
10174;SDS011;18221;38.704;0.152;2024-03-02T04:02:44;4.03;;;2.40;;
10174;SDS011;18221;38.704;0.152;2024-03-02T04:05:13;4.97;;;2.03;;
10174;SDS011;18221;38.704;0.152;2024-03-02T04:07:41;2.93;;;1.87;;
10174;SDS011;18221;38.704;0.152;2024-03-02T04:10:09;3.00;;;2.00;;
10174;SDS011;18221;38.704;0.152;2024-03-02T04:12:38;3.23;;;1.80;;
10174;SDS011;18221;38.704;0.152;2024-03-02T04:15:05;5.00;;;2.13;;
10174;SDS011;18221;38.704;0.152;2024-03-02T04:17:34;2.00;;;1.70;;
10174;SDS011;18221;38.704;0.152;2024-03-02T04:20:02;2.43;;;1.97;;
10174;SDS011;18221;38.704;0.152;2024-03-02T04:22:34;2.57;;;1.80;;
10174;SDS011;18221;38.704;0.152;2024-03-02T04:25:02;4.97;;;1.90;;
10174;SDS011;18221;38.704;0.152;2024-03-02T04:27:32;3.97;;;1.80;;
10174;SDS011;18221;38.704;0.152;2024-03-02T04:30:00;2.70;;;1.83;;
10174;SDS011;18221;38.704;0.152;2024-03-02T04:32:29;4.63;;;1.80;;
10174;SDS011;18221;38.704;0.152;2024-03-02T04:34:56;2.83;;;1.80;;
10174;SDS011;18221;38.704;0.152;2024-03-02T04:37:24;4.70;;;2.10;;
10174;SDS011;18221;38.704;0.152;2024-03-02T04:39:53;3.57;;;2.00;;
10174;SDS011;18221;38.704;0.152;2024-03-02T04:42:21;4.37;;;2.07;;
10174;SDS011;18221;38.704;0.152;2024-03-02T04:44:49;3.23;;;2.07;;
10174;SDS011;18221;38.704;0.152;2024-03-02T04:47:17;3.60;;;2.00;;
10174;SDS011;18221;38.704;0.152;2024-03-02T04:49:45;3.37;;;2.00;;
10174;SDS011;18221;38.704;0.152;2024-03-02T04:52:13;4.87;;;2.13;;
10174;SDS011;18221;38.704;0.152;2024-03-02T04:54:41;3.77;;;2.20;;
10174;SDS011;18221;38.704;0.152;2024-03-02T04:57:24;3.60;;;2.07;;
10174;SDS011;18221;38.704;0.152;2024-03-02T04:59:51;3.27;;;2.00;;
10174;SDS011;18221;38.704;0.152;2024-03-02T05:02:19;3.00;;;1.90;;
10174;SDS011;18221;38.704;0.152;2024-03-02T05:04:47;4.17;;;2.03;;
10174;SDS011;18221;38.704;0.152;2024-03-02T05:07:15;3.83;;;2.17;;
10174;SDS011;18221;38.704;0.152;2024-03-02T05:09:43;3.53;;;2.10;;
10174;SDS011;18221;38.704;0.152;2024-03-02T05:12:10;2.73;;;1.90;;
10174;SDS011;18221;38.704;0.152;2024-03-02T05:15:01;4.83;;;1.97;;
10174;SDS011;18221;38.704;0.152;2024-03-02T05:17:30;3.87;;;2.00;;
10174;SDS011;18221;38.704;0.152;2024-03-02T05:19:58;3.33;;;2.00;;
10174;SDS011;18221;38.704;0.152;2024-03-02T05:22:25;3.57;;;2.20;;
10174;SDS011;18221;38.704;0.152;2024-03-02T05:24:54;2.63;;;1.60;;
10174;SDS011;18221;38.704;0.152;2024-03-02T05:27:22;2.83;;;1.90;;
10174;SDS011;18221;38.704;0.152;2024-03-02T05:29:49;3.10;;;2.07;;
10174;SDS011;18221;38.704;0.152;2024-03-02T05:32:18;2.87;;;1.83;;
10174;SDS011;18221;38.704;0.152;2024-03-02T05:34:46;2.67;;;1.90;;
10174;SDS011;18221;38.704;0.152;2024-03-02T05:37:15;4.17;;;2.00;;
10174;SDS011;18221;38.704;0.152;2024-03-02T05:39:43;1.87;;;1.60;;
10174;SDS011;18221;38.704;0.152;2024-03-02T05:42:11;3.23;;;1.80;;
10174;SDS011;18221;38.704;0.152;2024-03-02T05:44:41;2.30;;;1.77;;
10174;SDS011;18221;38.704;0.152;2024-03-02T05:47:09;2.60;;;1.80;;
10174;SDS011;18221;38.704;0.152;2024-03-02T05:49:38;3.53;;;1.90;;
10174;SDS011;18221;38.704;0.152;2024-03-02T05:52:06;3.53;;;1.87;;
10174;SDS011;18221;38.704;0.152;2024-03-02T05:54:34;2.40;;;1.67;;
10174;SDS011;18221;38.704;0.152;2024-03-02T05:57:01;1.80;;;1.70;;
10174;SDS011;18221;38.704;0.152;2024-03-02T05:59:47;3.37;;;2.03;;
10174;SDS011;18221;38.704;0.152;2024-03-02T06:02:15;1.80;;;1.60;;
10174;SDS011;18221;38.704;0.152;2024-03-02T06:04:44;4.17;;;2.00;;
10174;SDS011;18221;38.704;0.152;2024-03-02T06:07:12;2.77;;;1.80;;
10174;SDS011;18221;38.704;0.152;2024-03-02T06:09:40;2.03;;;1.70;;
10174;SDS011;18221;38.704;0.152;2024-03-02T06:12:09;5.47;;;2.13;;
10174;SDS011;18221;38.704;0.152;2024-03-02T06:14:39;3.00;;;2.10;;
10174;SDS011;18221;38.704;0.152;2024-03-02T06:17:07;2.97;;;1.83;;
10174;SDS011;18221;38.704;0.152;2024-03-02T06:19:34;2.60;;;1.90;;
10174;SDS011;18221;38.704;0.152;2024-03-02T06:22:04;3.43;;;2.10;;
10174;SDS011;18221;38.704;0.152;2024-03-02T06:24:35;3.67;;;1.70;;
10174;SDS011;18221;38.704;0.152;2024-03-02T06:27:04;3.47;;;1.97;;
10174;SDS011;18221;38.704;0.152;2024-03-02T06:29:32;3.17;;;1.90;;
10174;SDS011;18221;38.704;0.152;2024-03-02T06:32:00;3.03;;;1.87;;
10174;SDS011;18221;38.704;0.152;2024-03-02T06:34:28;4.20;;;2.10;;
10174;SDS011;18221;38.704;0.152;2024-03-02T06:36:56;3.07;;;1.80;;
10174;SDS011;18221;38.704;0.152;2024-03-02T06:39:25;3.63;;;1.80;;
10174;SDS011;18221;38.704;0.152;2024-03-02T06:41:53;2.10;;;1.77;;
10174;SDS011;18221;38.704;0.152;2024-03-02T06:44:21;2.10;;;1.80;;
10174;SDS011;18221;38.704;0.152;2024-03-02T06:46:49;2.73;;;1.93;;
10174;SDS011;18221;38.704;0.152;2024-03-02T06:49:16;2.83;;;1.70;;
10174;SDS011;18221;38.704;0.152;2024-03-02T06:51:44;1.97;;;1.77;;
10174;SDS011;18221;38.704;0.152;2024-03-02T06:54:12;2.43;;;1.70;;
10174;SDS011;18221;38.704;0.152;2024-03-02T06:56:41;3.90;;;1.80;;
10174;SDS011;18221;38.704;0.152;2024-03-02T06:59:09;4.30;;;1.90;;
10174;SDS011;18221;38.704;0.152;2024-03-02T07:01:37;1.90;;;1.63;;
10174;SDS011;18221;38.704;0.152;2024-03-02T07:04:04;4.03;;;1.87;;
10174;SDS011;18221;38.704;0.152;2024-03-02T07:06:32;2.33;;;1.67;;
10174;SDS011;18221;38.704;0.152;2024-03-02T07:09:00;2.93;;;1.80;;
10174;SDS011;18221;38.704;0.152;2024-03-02T07:11:28;2.80;;;1.83;;
10174;SDS011;18221;38.704;0.152;2024-03-02T07:13:57;3.47;;;1.87;;
10174;SDS011;18221;38.704;0.152;2024-03-02T07:16:25;3.23;;;1.80;;
10174;SDS011;18221;38.704;0.152;2024-03-02T07:18:58;1.90;;;1.60;;
10174;SDS011;18221;38.704;0.152;2024-03-02T07:21:27;2.37;;;1.80;;
10174;SDS011;18221;38.704;0.152;2024-03-02T07:23:55;3.30;;;2.00;;
10174;SDS011;18221;38.704;0.152;2024-03-02T07:26:22;2.93;;;2.13;;
10174;SDS011;18221;38.704;0.152;2024-03-02T07:28:51;3.37;;;2.30;;
10174;SDS011;18221;38.704;0.152;2024-03-02T07:31:20;3.57;;;2.20;;
10174;SDS011;18221;38.704;0.152;2024-03-02T07:33:48;2.93;;;2.13;;
10174;SDS011;18221;38.704;0.152;2024-03-02T07:36:16;3.63;;;2.30;;
10174;SDS011;18221;38.704;0.152;2024-03-02T07:38:44;5.17;;;3.10;;
10174;SDS011;18221;38.704;0.152;2024-03-02T07:41:15;6.97;;;3.60;;
10174;SDS011;18221;38.704;0.152;2024-03-02T07:43:44;6.57;;;3.97;;
10174;SDS011;18221;38.704;0.152;2024-03-02T07:46:11;9.10;;;4.80;;
10174;SDS011;18221;38.704;0.152;2024-03-02T07:48:41;5.63;;;3.60;;
10174;SDS011;18221;38.704;0.152;2024-03-02T07:51:09;7.87;;;3.73;;
10174;SDS011;18221;38.704;0.152;2024-03-02T07:53:39;6.00;;;3.50;;
10174;SDS011;18221;38.704;0.152;2024-03-02T07:56:06;6.67;;;3.80;;
10174;SDS011;18221;38.704;0.152;2024-03-02T07:58:34;4.97;;;3.20;;
10174;SDS011;18221;38.704;0.152;2024-03-02T08:01:02;5.50;;;3.43;;
10174;SDS011;18221;38.704;0.152;2024-03-02T08:03:30;5.13;;;2.93;;
10174;SDS011;18221;38.704;0.152;2024-03-02T08:06:01;5.30;;;3.27;;
10174;SDS011;18221;38.704;0.152;2024-03-02T08:08:29;6.70;;;3.17;;
10174;SDS011;18221;38.704;0.152;2024-03-02T08:10:56;4.50;;;2.90;;
10174;SDS011;18221;38.704;0.152;2024-03-02T08:13:25;7.03;;;3.10;;
10174;SDS011;18221;38.704;0.152;2024-03-02T08:15:52;5.10;;;3.10;;
10174;SDS011;18221;38.704;0.152;2024-03-02T08:18:20;5.33;;;2.50;;
10174;SDS011;18221;38.704;0.152;2024-03-02T08:20:48;3.63;;;2.10;;
10174;SDS011;18221;38.704;0.152;2024-03-02T08:23:17;4.27;;;2.00;;
10174;SDS011;18221;38.704;0.152;2024-03-02T08:25:45;3.47;;;1.90;;
10174;SDS011;18221;38.704;0.152;2024-03-02T08:28:13;2.00;;;1.80;;
10174;SDS011;18221;38.704;0.152;2024-03-02T08:30:41;3.87;;;2.20;;
10174;SDS011;18221;38.704;0.152;2024-03-02T08:33:09;2.70;;;1.90;;
10174;SDS011;18221;38.704;0.152;2024-03-02T08:35:36;4.20;;;2.27;;
10174;SDS011;18221;38.704;0.152;2024-03-02T08:38:04;5.03;;;2.37;;
10174;SDS011;18221;38.704;0.152;2024-03-02T08:40:33;4.07;;;2.30;;
10174;SDS011;18221;38.704;0.152;2024-03-02T08:43:01;4.53;;;2.07;;
10174;SDS011;18221;38.704;0.152;2024-03-02T08:45:29;4.27;;;2.10;;
10174;SDS011;18221;38.704;0.152;2024-03-02T08:47:57;5.17;;;2.10;;
10174;SDS011;18221;38.704;0.152;2024-03-02T08:50:25;2.53;;;1.80;;
10174;SDS011;18221;38.704;0.152;2024-03-02T08:52:53;3.03;;;1.93;;
10174;SDS011;18221;38.704;0.152;2024-03-02T08:55:20;3.67;;;1.90;;
10174;SDS011;18221;38.704;0.152;2024-03-02T08:57:50;2.67;;;1.80;;
10174;SDS011;18221;38.704;0.152;2024-03-02T09:00:18;2.63;;;1.80;;
10174;SDS011;18221;38.704;0.152;2024-03-02T09:02:46;3.63;;;1.70;;
10174;SDS011;18221;38.704;0.152;2024-03-02T09:05:14;5.17;;;1.90;;
10174;SDS011;18221;38.704;0.152;2024-03-02T09:07:42;2.37;;;1.87;;
10174;SDS011;18221;38.704;0.152;2024-03-02T09:10:10;2.57;;;1.83;;
10174;SDS011;18221;38.704;0.152;2024-03-02T09:12:38;4.47;;;1.80;;
10174;SDS011;18221;38.704;0.152;2024-03-02T09:15:08;4.77;;;1.90;;
10174;SDS011;18221;38.704;0.152;2024-03-02T09:17:36;4.70;;;2.13;;
10174;SDS011;18221;38.704;0.152;2024-03-02T09:20:04;3.93;;;2.17;;
10174;SDS011;18221;38.704;0.152;2024-03-02T09:22:33;4.13;;;2.07;;
10174;SDS011;18221;38.704;0.152;2024-03-02T09:25:01;4.97;;;2.47;;
10174;SDS011;18221;38.704;0.152;2024-03-02T09:27:29;4.90;;;2.47;;
10174;SDS011;18221;38.704;0.152;2024-03-02T09:29:57;4.70;;;2.10;;
10174;SDS011;18221;38.704;0.152;2024-03-02T09:32:26;4.37;;;2.17;;
10174;SDS011;18221;38.704;0.152;2024-03-02T09:34:54;6.43;;;2.30;;
10174;SDS011;18221;38.704;0.152;2024-03-02T09:37:23;3.50;;;1.93;;
10174;SDS011;18221;38.704;0.152;2024-03-02T09:39:52;4.10;;;2.20;;
10174;SDS011;18221;38.704;0.152;2024-03-02T09:42:20;4.50;;;2.10;;
10174;SDS011;18221;38.704;0.152;2024-03-02T09:44:48;4.33;;;2.10;;
10174;SDS011;18221;38.704;0.152;2024-03-02T09:47:17;5.17;;;2.37;;
10174;SDS011;18221;38.704;0.152;2024-03-02T09:49:46;3.73;;;2.00;;
10174;SDS011;18221;38.704;0.152;2024-03-02T09:52:14;11.97;;;2.47;;
10174;SDS011;18221;38.704;0.152;2024-03-02T09:54:42;6.63;;;2.50;;
10174;SDS011;18221;38.704;0.152;2024-03-02T09:57:10;3.43;;;2.20;;
10174;SDS011;18221;38.704;0.152;2024-03-02T09:59:38;4.70;;;2.20;;
10174;SDS011;18221;38.704;0.152;2024-03-02T10:02:05;5.73;;;2.03;;
10174;SDS011;18221;38.704;0.152;2024-03-02T10:04:34;5.57;;;2.33;;
10174;SDS011;18221;38.704;0.152;2024-03-02T10:07:13;5.70;;;2.23;;
10174;SDS011;18221;38.704;0.152;2024-03-02T10:09:43;4.23;;;2.20;;
10174;SDS011;18221;38.704;0.152;2024-03-02T10:12:13;4.43;;;2.40;;
10174;SDS011;18221;38.704;0.152;2024-03-02T10:14:42;5.20;;;2.40;;
10174;SDS011;18221;38.704;0.152;2024-03-02T10:17:14;5.67;;;2.53;;
10174;SDS011;18221;38.704;0.152;2024-03-02T10:19:44;4.83;;;2.30;;
10174;SDS011;18221;38.704;0.152;2024-03-02T10:22:14;3.53;;;2.30;;
10174;SDS011;18221;38.704;0.152;2024-03-02T10:24:42;12.10;;;2.83;;
10174;SDS011;18221;38.704;0.152;2024-03-02T10:27:14;5.47;;;2.33;;
10174;SDS011;18221;38.704;0.152;2024-03-02T10:29:45;5.17;;;2.37;;
10174;SDS011;18221;38.704;0.152;2024-03-02T10:32:14;5.73;;;2.47;;
10174;SDS011;18221;38.704;0.152;2024-03-02T10:34:44;6.07;;;2.50;;
10174;SDS011;18221;38.704;0.152;2024-03-02T10:37:15;3.43;;;2.00;;
10174;SDS011;18221;38.704;0.152;2024-03-02T10:39:43;3.80;;;2.10;;
10174;SDS011;18221;38.704;0.152;2024-03-02T10:42:13;4.40;;;2.10;;
10174;SDS011;18221;38.704;0.152;2024-03-02T10:44:42;6.80;;;2.90;;
10174;SDS011;18221;38.704;0.152;2024-03-02T10:47:12;4.53;;;2.43;;
10174;SDS011;18221;38.704;0.152;2024-03-02T10:49:42;5.10;;;2.40;;
10174;SDS011;18221;38.704;0.152;2024-03-02T10:52:14;4.70;;;2.13;;
10174;SDS011;18221;38.704;0.152;2024-03-02T10:54:42;5.47;;;2.50;;
10174;SDS011;18221;38.704;0.152;2024-03-02T10:57:10;5.80;;;2.50;;
10174;SDS011;18221;38.704;0.152;2024-03-02T10:59:44;5.93;;;2.70;;
10174;SDS011;18221;38.704;0.152;2024-03-02T11:02:22;3.30;;;2.20;;
10174;SDS011;18221;38.704;0.152;2024-03-02T11:04:54;5.57;;;2.40;;
10174;SDS011;18221;38.704;0.152;2024-03-02T11:07:24;4.97;;;2.50;;
10174;SDS011;18221;38.704;0.152;2024-03-02T11:09:56;3.97;;;2.53;;
10174;SDS011;18221;38.704;0.152;2024-03-02T11:12:35;7.37;;;2.50;;
10174;SDS011;18221;38.704;0.152;2024-03-02T11:15:09;5.03;;;2.30;;
10174;SDS011;18221;38.704;0.152;2024-03-02T11:17:41;6.13;;;2.70;;
10174;SDS011;18221;38.704;0.152;2024-03-02T11:20:11;6.53;;;2.23;;
10174;SDS011;18221;38.704;0.152;2024-03-02T11:22:41;5.30;;;2.23;;
10174;SDS011;18221;38.704;0.152;2024-03-02T11:25:22;5.17;;;2.40;;
10174;SDS011;18221;38.704;0.152;2024-03-02T11:28:01;7.03;;;2.30;;
10174;SDS011;18221;38.704;0.152;2024-03-02T11:30:49;4.40;;;2.27;;
10174;SDS011;18221;38.704;0.152;2024-03-02T11:33:24;5.67;;;2.00;;
10174;SDS011;18221;38.704;0.152;2024-03-02T11:35:56;3.07;;;1.87;;
10174;SDS011;18221;38.704;0.152;2024-03-02T11:38:30;4.83;;;2.53;;
10174;SDS011;18221;38.704;0.152;2024-03-02T11:41:00;5.13;;;2.33;;
10174;SDS011;18221;38.704;0.152;2024-03-02T11:43:28;5.83;;;2.63;;
10174;SDS011;18221;38.704;0.152;2024-03-02T11:45:58;4.40;;;1.93;;
10174;SDS011;18221;38.704;0.152;2024-03-02T11:48:32;5.20;;;2.20;;
10174;SDS011;18221;38.704;0.152;2024-03-02T11:51:02;4.53;;;2.27;;
10174;SDS011;18221;38.704;0.152;2024-03-02T11:53:32;6.57;;;2.20;;
10174;SDS011;18221;38.704;0.152;2024-03-02T11:56:05;3.37;;;2.10;;
10174;SDS011;18221;38.704;0.152;2024-03-02T11:58:37;4.17;;;1.97;;
10174;SDS011;18221;38.704;0.152;2024-03-02T12:01:07;6.80;;;2.63;;
10174;SDS011;18221;38.704;0.152;2024-03-02T12:03:37;4.30;;;2.00;;
10174;SDS011;18221;38.704;0.152;2024-03-02T12:06:05;3.60;;;2.27;;
10174;SDS011;18221;38.704;0.152;2024-03-02T12:08:35;4.30;;;2.50;;
10174;SDS011;18221;38.704;0.152;2024-03-02T12:11:04;6.83;;;2.60;;
10174;SDS011;18221;38.704;0.152;2024-03-02T12:13:33;3.17;;;1.63;;
10174;SDS011;18221;38.704;0.152;2024-03-02T12:16:00;4.03;;;2.10;;
10174;SDS011;18221;38.704;0.152;2024-03-02T12:18:29;3.13;;;2.07;;
10174;SDS011;18221;38.704;0.152;2024-03-02T12:20:56;7.10;;;2.27;;
10174;SDS011;18221;38.704;0.152;2024-03-02T12:23:24;5.13;;;2.53;;
10174;SDS011;18221;38.704;0.152;2024-03-02T12:25:54;6.67;;;2.10;;
10174;SDS011;18221;38.704;0.152;2024-03-02T12:28:22;4.70;;;2.10;;
10174;SDS011;18221;38.704;0.152;2024-03-02T12:30:50;4.87;;;2.20;;
10174;SDS011;18221;38.704;0.152;2024-03-02T12:33:18;7.90;;;2.90;;
10174;SDS011;18221;38.704;0.152;2024-03-02T12:35:48;4.73;;;2.43;;
10174;SDS011;18221;38.704;0.152;2024-03-02T12:38:16;7.37;;;2.30;;
10174;SDS011;18221;38.704;0.152;2024-03-02T12:40:44;4.83;;;2.10;;
10174;SDS011;18221;38.704;0.152;2024-03-02T12:43:17;4.87;;;2.00;;
10174;SDS011;18221;38.704;0.152;2024-03-02T12:45:45;3.23;;;2.00;;
10174;SDS011;18221;38.704;0.152;2024-03-02T12:48:13;6.40;;;2.20;;
10174;SDS011;18221;38.704;0.152;2024-03-02T12:50:41;5.43;;;2.13;;
10174;SDS011;18221;38.704;0.152;2024-03-02T12:53:13;3.00;;;2.10;;
10174;SDS011;18221;38.704;0.152;2024-03-02T12:55:42;4.87;;;2.10;;
10174;SDS011;18221;38.704;0.152;2024-03-02T12:58:18;4.13;;;1.93;;
10174;SDS011;18221;38.704;0.152;2024-03-02T13:00:47;4.93;;;1.93;;
10174;SDS011;18221;38.704;0.152;2024-03-02T13:03:17;4.77;;;2.03;;
10174;SDS011;18221;38.704;0.152;2024-03-02T13:05:48;4.80;;;1.97;;
10174;SDS011;18221;38.704;0.152;2024-03-02T13:08:16;5.20;;;1.90;;
10174;SDS011;18221;38.704;0.152;2024-03-02T13:10:44;5.83;;;2.30;;
10174;SDS011;18221;38.704;0.152;2024-03-02T13:13:12;6.07;;;2.53;;
10174;SDS011;18221;38.704;0.152;2024-03-02T13:15:42;5.23;;;2.30;;
10174;SDS011;18221;38.704;0.152;2024-03-02T13:18:10;3.17;;;2.07;;
10174;SDS011;18221;38.704;0.152;2024-03-02T13:20:38;4.57;;;2.27;;
10174;SDS011;18221;38.704;0.152;2024-03-02T13:23:06;5.97;;;2.40;;
10174;SDS011;18221;38.704;0.152;2024-03-02T13:25:34;9.40;;;2.50;;
10174;SDS011;18221;38.704;0.152;2024-03-02T13:28:01;7.90;;;2.30;;
10174;SDS011;18221;38.704;0.152;2024-03-02T13:30:29;4.97;;;2.33;;
10174;SDS011;18221;38.704;0.152;2024-03-02T13:32:59;4.97;;;2.20;;
10174;SDS011;18221;38.704;0.152;2024-03-02T13:35:26;5.90;;;2.57;;
10174;SDS011;18221;38.704;0.152;2024-03-02T13:37:54;6.20;;;2.47;;
10174;SDS011;18221;38.704;0.152;2024-03-02T13:40:22;5.33;;;2.20;;
10174;SDS011;18221;38.704;0.152;2024-03-02T13:42:50;7.97;;;2.30;;
10174;SDS011;18221;38.704;0.152;2024-03-02T13:45:19;6.63;;;2.10;;
10174;SDS011;18221;38.704;0.152;2024-03-02T13:47:47;6.23;;;2.27;;
10174;SDS011;18221;38.704;0.152;2024-03-02T13:50:16;5.03;;;2.10;;
10174;SDS011;18221;38.704;0.152;2024-03-02T13:52:45;5.30;;;2.20;;
10174;SDS011;18221;38.704;0.152;2024-03-02T13:55:13;3.77;;;1.90;;
10174;SDS011;18221;38.704;0.152;2024-03-02T13:57:41;6.53;;;2.10;;
10174;SDS011;18221;38.704;0.152;2024-03-02T14:00:09;7.73;;;2.30;;
10174;SDS011;18221;38.704;0.152;2024-03-02T14:02:38;4.47;;;2.43;;
10174;SDS011;18221;38.704;0.152;2024-03-02T14:05:06;5.20;;;2.10;;
10174;SDS011;18221;38.704;0.152;2024-03-02T14:07:38;4.50;;;2.00;;
10174;SDS011;18221;38.704;0.152;2024-03-02T14:10:07;4.50;;;2.20;;
10174;SDS011;18221;38.704;0.152;2024-03-02T14:12:36;5.20;;;1.97;;
10174;SDS011;18221;38.704;0.152;2024-03-02T14:15:04;6.40;;;2.60;;
10174;SDS011;18221;38.704;0.152;2024-03-02T14:17:33;5.67;;;2.20;;
10174;SDS011;18221;38.704;0.152;2024-03-02T14:20:01;4.70;;;1.97;;
10174;SDS011;18221;38.704;0.152;2024-03-02T14:22:30;5.50;;;2.30;;
10174;SDS011;18221;38.704;0.152;2024-03-02T14:25:00;6.10;;;2.03;;
10174;SDS011;18221;38.704;0.152;2024-03-02T14:27:28;5.33;;;2.30;;
10174;SDS011;18221;38.704;0.152;2024-03-02T14:29:56;5.30;;;2.40;;
10174;SDS011;18221;38.704;0.152;2024-03-02T14:32:23;6.80;;;2.10;;
10174;SDS011;18221;38.704;0.152;2024-03-02T14:34:51;5.63;;;2.43;;
10174;SDS011;18221;38.704;0.152;2024-03-02T14:37:19;6.10;;;2.30;;
10174;SDS011;18221;38.704;0.152;2024-03-02T14:39:47;5.10;;;2.20;;
10174;SDS011;18221;38.704;0.152;2024-03-02T14:42:17;9.37;;;2.70;;
10174;SDS011;18221;38.704;0.152;2024-03-02T14:44:44;6.20;;;3.00;;
10174;SDS011;18221;38.704;0.152;2024-03-02T14:47:12;9.57;;;2.60;;
10174;SDS011;18221;38.704;0.152;2024-03-02T14:49:40;6.23;;;2.77;;
10174;SDS011;18221;38.704;0.152;2024-03-02T14:52:10;8.40;;;2.77;;
10174;SDS011;18221;38.704;0.152;2024-03-02T14:54:38;15.77;;;3.63;;
10174;SDS011;18221;38.704;0.152;2024-03-02T14:57:07;10.70;;;2.67;;
10174;SDS011;18221;38.704;0.152;2024-03-02T14:59:37;5.00;;;2.80;;
10174;SDS011;18221;38.704;0.152;2024-03-02T15:02:05;8.23;;;2.70;;
10174;SDS011;18221;38.704;0.152;2024-03-02T15:04:34;11.20;;;3.00;;
10174;SDS011;18221;38.704;0.152;2024-03-02T15:07:02;7.47;;;3.00;;
10174;SDS011;18221;38.704;0.152;2024-03-02T15:09:30;9.33;;;3.47;;
10174;SDS011;18221;38.704;0.152;2024-03-02T15:12:00;9.73;;;3.10;;